createdAt,value
2018-04-08T00:01:19.263Z,73.79
2018-04-08T00:03:47.682Z,73.36
2018-04-08T00:06:16.126Z,74.37
2018-04-08T00:08:44.608Z,73.86
2018-04-08T00:11:13.008Z,76.39
2018-04-08T00:13:41.413Z,76.14
2018-04-08T00:16:09.861Z,75.90
2018-04-08T00:18:38.316Z,75.26
2018-04-08T00:21:06.756Z,75.67
2018-04-08T00:23:35.207Z,76.65
2018-04-08T00:26:03.628Z,76.74
2018-04-08T00:28:32.081Z,76.51
2018-04-08T00:31:00.528Z,77.77
2018-04-08T00:33:28.927Z,76.37
2018-04-08T00:35:57.377Z,76.68
2018-04-08T00:38:25.849Z,77.40
2018-04-08T00:40:54.266Z,77.93
2018-04-08T00:43:22.715Z,78.12
2018-04-08T00:45:51.214Z,78.54
2018-04-08T00:48:19.637Z,77.79
2018-04-08T00:50:48.055Z,77.57
2018-04-08T00:53:16.590Z,77.21
2018-04-08T00:55:44.972Z,77.42
2018-04-08T00:58:13.130Z,77.29
2018-04-08T01:00:41.368Z,76.95
2018-04-08T01:03:09.478Z,77.83
2018-04-08T01:05:37.649Z,78.63
2018-04-08T01:08:05.880Z,77.08
2018-04-08T01:10:34.041Z,77.08
2018-04-08T01:13:02.565Z,76.96
2018-04-08T01:15:31.028Z,77.30
2018-04-08T01:17:59.178Z,77.11
2018-04-08T01:20:27.621Z,77.39
2018-04-08T01:22:56.097Z,77.80
2018-04-08T01:25:24.484Z,78.01
2018-04-08T01:27:52.936Z,77.33
2018-04-08T01:30:21.398Z,78.27
2018-04-08T01:32:49.824Z,77.42
2018-04-08T01:35:18.360Z,77.78
2018-04-08T01:37:46.738Z,78.33
2018-04-08T01:40:15.194Z,78.23
2018-04-08T01:42:43.669Z,78.02
2018-04-08T01:45:12.125Z,78.35
2018-04-08T01:47:40.562Z,77.82
2018-04-08T01:50:09.061Z,77.96
2018-04-08T01:52:37.456Z,77.80
2018-04-08T01:55:05.841Z,78.14
2018-04-08T01:57:34.224Z,78.65
2018-04-08T02:00:02.697Z,79.03
2018-04-08T02:02:31.146Z,79.86
2018-04-08T02:04:59.563Z,78.99
2018-04-08T02:07:28.022Z,79.42
2018-04-08T02:09:56.440Z,79.12
2018-04-08T02:12:24.866Z,78.99
2018-04-08T02:14:53.305Z,79.22
2018-04-08T02:17:21.753Z,80.74
2018-04-08T02:19:50.142Z,79.81
2018-04-08T02:22:18.572Z,81.22
2018-04-08T02:24:47.060Z,80.30
2018-04-08T02:27:15.496Z,79.92
2018-04-08T02:29:43.990Z,80.25
2018-04-08T02:32:12.404Z,81.84
2018-04-08T02:34:40.851Z,81.58
2018-04-08T02:37:09.472Z,80.73
2018-04-08T02:39:37.987Z,80.27
2018-04-08T02:42:06.435Z,81.01
2018-04-08T02:44:34.817Z,80.17
2018-04-08T02:47:03.249Z,79.94
2018-04-08T02:49:31.669Z,80.10
2018-04-08T02:52:00.133Z,80.79
2018-04-08T02:54:28.678Z,80.55
2018-04-08T02:56:57.184Z,80.82
2018-04-08T02:59:25.580Z,80.26
2018-04-08T03:01:54.137Z,79.96
2018-04-08T03:04:22.559Z,80.86
2018-04-08T03:06:51.019Z,79.68
2018-04-08T03:09:19.490Z,79.78
2018-04-08T03:11:47.876Z,80.37
2018-04-08T03:14:16.275Z,80.61
2018-04-08T03:16:44.695Z,80.00
2018-04-08T03:19:13.091Z,79.90
2018-04-08T03:21:41.537Z,80.34
2018-04-08T03:24:09.944Z,80.91
2018-04-08T03:26:38.397Z,82.18
2018-04-08T03:29:06.832Z,82.07
2018-04-08T03:31:35.310Z,81.91
2018-04-08T03:34:03.710Z,80.56
2018-04-08T03:36:32.320Z,80.45
2018-04-08T03:39:00.768Z,81.35
2018-04-08T03:41:29.220Z,80.28
2018-04-08T03:43:57.873Z,79.78
2018-04-08T03:46:26.281Z,79.80
2018-04-08T03:48:54.755Z,79.33
2018-04-08T03:51:23.224Z,79.74
2018-04-08T03:53:51.648Z,79.96
2018-04-08T03:56:20.100Z,80.39
2018-04-08T03:58:48.499Z,80.06
2018-04-08T04:01:16.923Z,79.73
2018-04-08T04:03:45.353Z,80.07
2018-04-08T04:06:13.797Z,80.39
2018-04-08T04:08:42.253Z,79.93
2018-04-08T04:11:10.763Z,80.60
2018-04-08T04:13:39.221Z,80.39
2018-04-08T04:16:07.656Z,80.95
2018-04-08T04:18:47.882Z,80.39
2018-04-08T04:24:39.354Z,80.49
2018-04-08T04:27:07.735Z,80.04
2018-04-08T04:29:36.194Z,79.86
2018-04-08T04:32:04.605Z,79.85
2018-04-08T04:34:33.085Z,79.00
2018-04-08T04:37:01.532Z,78.98
2018-04-08T04:39:29.951Z,79.19
2018-04-08T04:41:58.472Z,79.72
2018-04-08T04:44:26.912Z,79.79
2018-04-08T04:46:55.297Z,79.42
2018-04-08T04:49:23.717Z,78.77
2018-04-08T04:51:52.122Z,77.67
2018-04-08T04:54:20.578Z,77.37
2018-04-08T04:56:49.010Z,78.59
2018-04-08T04:59:17.384Z,76.99
2018-04-08T05:01:45.832Z,76.86
2018-04-08T05:04:14.377Z,76.78
2018-04-08T05:06:42.828Z,75.97
2018-04-08T05:09:11.233Z,76.73
2018-04-08T05:11:39.661Z,74.61
2018-04-08T05:14:08.093Z,73.93
2018-04-08T05:16:36.478Z,73.08
2018-04-08T05:19:04.929Z,72.47
2018-04-08T05:21:33.329Z,72.23
2018-04-08T05:24:01.912Z,71.64
2018-04-08T05:26:30.330Z,70.79
2018-04-08T05:28:58.712Z,70.08
2018-04-08T05:31:27.280Z,69.62
2018-04-08T05:33:55.739Z,68.61
2018-04-08T05:36:24.215Z,66.74
2018-04-08T05:38:52.608Z,65.97
2018-04-08T05:41:21.097Z,64.75
2018-04-08T05:43:49.500Z,63.67
2018-04-08T05:46:17.984Z,63.58
2018-04-08T05:48:46.435Z,63.30
2018-04-08T05:51:14.923Z,62.98
2018-04-08T05:53:43.439Z,62.46
2018-04-08T05:56:11.861Z,62.61
2018-04-08T05:58:40.300Z,61.87
2018-04-08T06:01:08.702Z,62.61
2018-04-08T06:03:37.175Z,62.15
2018-04-08T06:06:05.585Z,61.27
2018-04-08T06:08:33.972Z,61.16
2018-04-08T06:11:02.454Z,60.55
2018-04-08T06:13:30.856Z,60.04
2018-04-08T06:15:59.296Z,60.16
2018-04-08T06:18:27.760Z,58.75
2018-04-08T06:20:56.218Z,57.86
2018-04-08T06:23:24.661Z,57.85
2018-04-08T06:25:53.096Z,57.16
2018-04-08T06:28:21.545Z,56.67
2018-04-08T06:30:49.949Z,57.00
2018-04-08T06:33:18.379Z,56.23
2018-04-08T06:35:46.869Z,56.13
2018-04-08T06:38:15.356Z,56.52
2018-04-08T06:40:43.889Z,56.67
2018-04-08T06:43:12.400Z,55.41
2018-04-08T06:45:40.924Z,54.56
2018-04-08T06:48:09.390Z,54.03
2018-04-08T06:50:37.855Z,54.10
2018-04-08T06:53:06.294Z,54.33
2018-04-08T06:55:34.947Z,52.70
2018-04-08T06:58:03.399Z,51.20
2018-04-08T07:00:31.821Z,50.70
2018-04-08T07:03:00.228Z,50.06
2018-04-08T07:05:28.702Z,50.32
2018-04-08T07:07:57.087Z,49.86
2018-04-08T07:10:25.521Z,49.36
2018-04-08T07:12:54.056Z,49.26
2018-04-08T07:15:22.479Z,47.76
2018-04-08T07:17:50.953Z,47.27
2018-04-08T07:20:19.382Z,46.22
2018-04-08T07:22:47.848Z,44.88
2018-04-08T07:25:16.257Z,44.40
2018-04-08T07:27:44.665Z,43.66
2018-04-08T07:30:13.180Z,42.90
2018-04-08T07:32:41.695Z,43.87
2018-04-08T07:35:10.062Z,43.58
2018-04-08T07:37:38.516Z,43.88
2018-04-08T07:40:06.928Z,42.59
2018-04-08T07:42:35.385Z,41.49
2018-04-08T07:45:03.805Z,40.21
2018-04-08T07:47:32.239Z,40.22
2018-04-08T07:50:00.740Z,40.12
2018-04-08T07:52:29.144Z,40.01
2018-04-08T07:54:57.596Z,39.49
2018-04-08T07:57:25.985Z,39.02
2018-04-08T07:59:54.476Z,38.75
2018-04-08T08:02:22.899Z,38.90
2018-04-08T08:04:51.337Z,38.54
2018-04-08T08:07:19.730Z,39.84
2018-04-08T08:09:48.169Z,39.38
2018-04-08T08:12:16.598Z,39.32
2018-04-08T08:14:45.050Z,39.17
2018-04-08T08:17:13.445Z,39.96
2018-04-08T08:19:41.868Z,38.69
2018-04-08T08:22:10.302Z,38.68
2018-04-08T08:24:38.692Z,37.21
2018-04-08T08:27:07.074Z,35.68
2018-04-08T08:29:35.521Z,35.66
2018-04-08T08:32:03.916Z,35.72
2018-04-08T08:34:32.297Z,35.76
2018-04-08T08:37:00.740Z,33.95
2018-04-08T08:39:29.179Z,33.41
2018-04-08T08:41:57.613Z,32.55
2018-04-08T08:44:26.029Z,31.49
2018-04-08T08:46:54.470Z,33.76
2018-04-08T08:49:22.915Z,32.05
2018-04-08T08:51:51.301Z,30.11
2018-04-08T08:54:19.754Z,30.88
2018-04-08T08:56:48.157Z,30.14
2018-04-08T08:59:16.552Z,31.98
2018-04-08T09:01:45.011Z,32.68
2018-04-08T09:04:13.388Z,33.90
2018-04-08T09:06:41.903Z,32.97
2018-04-08T09:09:10.256Z,32.45
2018-04-08T09:11:38.679Z,30.82
2018-04-08T09:14:07.109Z,31.28
2018-04-08T09:16:35.533Z,30.19
2018-04-08T09:19:19.835Z,32.33
2018-04-08T09:21:53.641Z,29.86
2018-04-08T09:24:33.988Z,29.54
2018-04-08T09:27:02.384Z,29.79
2018-04-08T09:29:30.844Z,29.10
2018-04-08T09:31:59.370Z,28.10
2018-04-08T09:34:27.781Z,27.11
2018-04-08T09:36:56.334Z,28.15
2018-04-08T09:39:24.807Z,26.53
2018-04-08T09:41:53.200Z,24.68
2018-04-08T09:44:21.613Z,24.61
2018-04-08T09:46:50.025Z,23.66
2018-04-08T09:49:18.409Z,22.44
2018-04-08T09:51:46.840Z,23.37
2018-04-08T09:54:15.434Z,22.77
2018-04-08T09:56:43.869Z,23.04
2018-04-08T09:59:12.244Z,24.04
2018-04-08T10:01:55.617Z,23.69
2018-04-08T10:04:24.053Z,22.59
2018-04-08T10:06:52.501Z,21.95
2018-04-08T10:09:20.910Z,22.60
2018-04-08T10:11:49.390Z,22.23
2018-04-08T10:14:17.825Z,22.25
2018-04-08T10:16:46.198Z,22.65
2018-04-08T10:19:14.628Z,22.50
2018-04-08T10:21:43.030Z,22.19
2018-04-08T10:24:11.467Z,23.26
2018-04-08T10:26:39.873Z,22.51
2018-04-08T10:29:08.352Z,22.64
2018-04-08T10:31:36.731Z,23.73
2018-04-08T10:34:05.215Z,23.02
2018-04-08T10:36:33.649Z,22.90
2018-04-08T10:39:02.049Z,24.06
2018-04-08T10:41:30.500Z,23.62
2018-04-08T10:43:58.907Z,21.69
2018-04-08T10:46:27.322Z,21.50
2018-04-08T10:48:55.824Z,21.29
2018-04-08T10:51:24.315Z,21.41
2018-04-08T10:53:52.760Z,21.58
2018-04-08T10:56:21.449Z,21.28
2018-04-08T10:58:49.831Z,21.52
2018-04-08T11:01:18.316Z,21.10
2018-04-08T11:03:46.818Z,19.57
2018-04-08T11:06:15.456Z,20.42
2018-04-08T11:08:43.848Z,20.42
2018-04-08T11:11:12.325Z,19.94
2018-04-08T11:13:40.797Z,21.75
2018-04-08T11:16:09.220Z,20.14
2018-04-08T11:18:37.637Z,20.07
2018-04-08T11:21:06.089Z,20.67
2018-04-08T11:23:34.522Z,19.96
2018-04-08T11:26:02.925Z,20.05
2018-04-08T11:28:31.368Z,19.84
2018-04-08T11:30:59.750Z,18.77
2018-04-08T11:33:28.184Z,19.21
2018-04-08T11:35:56.608Z,19.27
2018-04-08T11:38:25.061Z,19.65
2018-04-08T11:40:53.436Z,22.46
2018-04-08T11:43:21.823Z,23.76
2018-04-08T11:45:50.271Z,24.14
2018-04-08T11:48:18.725Z,21.87
2018-04-08T11:50:47.100Z,20.17
2018-04-08T11:53:15.520Z,19.43
2018-04-08T11:55:43.941Z,18.19
2018-04-08T11:58:12.330Z,18.00
2018-04-08T12:00:40.812Z,17.84
2018-04-08T12:03:09.227Z,17.99
2018-04-08T12:05:37.687Z,17.28
2018-04-08T12:08:06.075Z,16.95
2018-04-08T12:10:34.572Z,19.41
2018-04-08T12:13:02.958Z,19.88
2018-04-08T12:15:31.405Z,18.27
2018-04-08T12:17:59.954Z,17.26
2018-04-08T12:20:28.420Z,17.76
2018-04-08T12:22:56.829Z,18.53
2018-04-08T12:25:25.304Z,19.08
2018-04-08T12:27:53.685Z,19.15
2018-04-08T12:30:22.065Z,16.95
2018-04-08T12:32:50.497Z,16.00
2018-04-08T12:35:19.009Z,15.16
2018-04-08T12:37:47.464Z,15.44
2018-04-08T12:40:15.913Z,16.33
2018-04-08T12:42:44.344Z,16.72
2018-04-08T12:45:12.774Z,16.19
2018-04-08T12:47:41.218Z,18.02
2018-04-08T12:50:09.604Z,19.18
2018-04-08T12:52:38.021Z,18.94
2018-04-08T12:55:06.401Z,16.97
2018-04-08T12:57:34.833Z,15.02
2018-04-08T13:00:03.298Z,14.59
2018-04-08T13:02:31.773Z,14.84
2018-04-08T13:05:00.205Z,15.38
2018-04-08T13:07:28.632Z,15.62
2018-04-08T13:09:57.098Z,18.09
2018-04-08T13:12:25.513Z,19.05
2018-04-08T13:14:53.914Z,18.79
2018-04-08T13:17:22.301Z,19.74
2018-04-08T13:19:50.721Z,18.74
2018-04-08T13:22:19.100Z,17.58
2018-04-08T13:24:47.529Z,19.50
2018-04-08T13:27:15.973Z,21.65
2018-04-08T13:29:44.353Z,21.20
2018-04-08T13:32:12.768Z,20.68
2018-04-08T13:34:41.172Z,20.74
2018-04-08T13:37:09.634Z,19.12
2018-04-08T13:39:38.032Z,17.76
2018-04-08T13:42:06.430Z,16.60
2018-04-08T13:44:34.872Z,16.83
2018-04-08T13:47:03.274Z,16.65
2018-04-08T13:49:31.705Z,16.14
2018-04-08T13:52:00.138Z,18.92
2018-04-08T13:54:28.561Z,20.52
2018-04-08T13:56:57.010Z,20.77
2018-04-08T13:59:25.424Z,21.27
2018-04-08T14:01:53.925Z,19.49
2018-04-08T14:04:22.364Z,16.84
2018-04-08T14:06:50.753Z,15.64
2018-04-08T14:09:19.172Z,15.06
2018-04-08T14:11:47.626Z,14.48
2018-04-08T14:14:15.996Z,15.12
2018-04-08T14:16:44.423Z,14.30
2018-04-08T14:19:12.846Z,13.55
2018-04-08T14:21:41.268Z,14.39
2018-04-08T14:24:09.797Z,16.61
2018-04-08T14:26:38.249Z,16.36
2018-04-08T14:29:06.695Z,17.62
2018-04-08T14:31:35.858Z,16.62
2018-04-08T14:34:05.341Z,17.12
2018-04-08T14:36:33.857Z,18.22
2018-04-08T14:39:02.313Z,17.48
2018-04-08T14:41:30.808Z,17.82
2018-04-08T14:43:59.239Z,17.09
2018-04-08T14:46:27.651Z,17.26
2018-04-08T14:48:57.093Z,17.49
2018-04-08T14:51:25.515Z,17.63
2018-04-08T14:53:55.186Z,17.75
2018-04-08T14:56:23.581Z,16.86
2018-04-08T14:58:51.990Z,17.55
2018-04-08T15:01:21.089Z,17.21
2018-04-08T15:03:49.477Z,18.60
2018-04-08T15:06:17.870Z,18.39
2018-04-08T15:08:46.333Z,19.76
2018-04-08T15:11:14.783Z,19.11
2018-04-08T15:13:43.200Z,18.82
2018-04-08T15:16:11.638Z,18.37
2018-04-08T15:18:40.066Z,18.88
2018-04-08T15:21:08.456Z,21.30
2018-04-08T15:23:37.313Z,21.88
2018-04-08T15:26:05.706Z,20.71
2018-04-08T15:28:34.084Z,21.31
2018-04-08T15:31:02.860Z,21.29
2018-04-08T15:33:31.297Z,20.26
2018-04-08T15:35:59.692Z,19.27
2018-04-08T15:38:28.912Z,19.41
2018-04-08T15:40:57.305Z,20.46
2018-04-08T15:43:25.694Z,21.38
2018-04-08T15:45:54.128Z,21.68
2018-04-08T15:48:22.577Z,22.74
2018-04-08T15:50:50.985Z,21.14
2018-04-08T15:53:19.456Z,21.89
2018-04-08T15:55:47.985Z,21.67
2018-04-08T15:58:16.376Z,21.66
2018-04-08T16:00:44.838Z,22.22
2018-04-08T16:03:13.287Z,23.32
2018-04-08T16:05:41.855Z,24.46
2018-04-08T16:08:10.253Z,24.96
2018-04-08T16:10:38.730Z,25.17
2018-04-08T16:13:07.354Z,25.26
2018-04-08T16:15:35.766Z,25.56
2018-04-08T16:18:04.232Z,26.95
2018-04-08T16:20:32.685Z,27.11
2018-04-08T16:23:01.134Z,26.94
2018-04-08T16:25:29.596Z,26.80
2018-04-08T16:27:58.019Z,28.12
2018-04-08T16:30:26.408Z,28.12
2018-04-08T16:32:54.931Z,29.22
2018-04-08T16:35:23.373Z,30.30
2018-04-08T16:37:51.816Z,31.00
2018-04-08T16:40:20.263Z,31.55
2018-04-08T16:42:48.683Z,33.59
2018-04-08T16:45:17.083Z,34.84
2018-04-08T16:47:45.544Z,35.64
2018-04-08T16:50:13.920Z,36.91
2018-04-08T16:52:42.354Z,37.23
2018-04-08T16:55:10.759Z,37.71
2018-04-08T16:57:39.226Z,38.45
2018-04-08T17:00:07.630Z,39.10
2018-04-08T17:02:36.049Z,39.38
2018-04-08T17:05:04.485Z,39.47
2018-04-08T17:07:33.028Z,40.04
2018-04-08T17:10:01.483Z,40.16
2018-04-08T17:12:29.884Z,40.79
2018-04-08T17:14:58.263Z,41.06
2018-04-08T17:17:26.762Z,40.81
2018-04-08T17:19:55.210Z,41.62
2018-04-08T17:22:23.606Z,40.75
2018-04-08T17:24:52.059Z,41.24
2018-04-08T17:27:20.695Z,41.60
2018-04-08T17:29:49.145Z,42.03
2018-04-08T17:32:17.648Z,41.83
2018-04-08T17:34:46.044Z,41.81
2018-04-08T17:37:14.476Z,42.06
2018-04-08T17:39:42.949Z,42.48
2018-04-08T17:42:11.422Z,42.98
2018-04-08T17:44:39.885Z,43.69
2018-04-08T17:47:08.280Z,44.06
2018-04-08T17:49:36.863Z,43.92
2018-04-08T17:52:05.339Z,44.72
2018-04-08T17:54:33.769Z,44.69
2018-04-08T17:57:02.225Z,45.04
2018-04-08T17:59:30.610Z,45.29
2018-04-08T18:01:59.056Z,45.47
2018-04-08T18:04:27.513Z,45.81
2018-04-08T18:06:56.382Z,45.58
2018-04-08T18:09:26.327Z,46.13
2018-04-08T18:11:54.819Z,45.70
2018-04-08T18:14:23.263Z,45.65
2018-04-08T18:16:51.664Z,46.12
2018-04-08T18:19:20.073Z,44.99
2018-04-08T18:21:48.544Z,45.16
2018-04-08T18:24:16.942Z,44.74
2018-04-08T18:26:45.388Z,44.68
2018-04-08T18:29:13.802Z,44.71
2018-04-08T18:31:42.239Z,44.43
2018-04-08T18:34:10.629Z,43.94
2018-04-08T18:36:39.131Z,44.28
2018-04-08T18:39:07.753Z,44.40
2018-04-08T18:41:36.212Z,44.91
2018-04-08T18:44:04.660Z,44.51
2018-04-08T18:46:33.084Z,44.60
2018-04-08T18:49:01.539Z,44.73
2018-04-08T18:51:30.008Z,45.02
2018-04-08T18:53:58.456Z,45.16
2018-04-08T18:56:26.943Z,44.70
2018-04-08T18:58:55.542Z,44.51
2018-04-08T19:01:23.980Z,44.26
2018-04-08T19:03:52.389Z,43.96
2018-04-08T19:06:20.857Z,43.88
2018-04-08T19:08:49.527Z,43.65
2018-04-08T19:11:18.121Z,43.39
2018-04-08T19:13:46.777Z,43.39
2018-04-08T19:16:15.239Z,42.94
2018-04-08T19:18:43.665Z,42.98
2018-04-08T19:21:12.094Z,42.94
2018-04-08T19:23:40.589Z,42.79
2018-04-08T19:26:09.058Z,42.64
2018-04-08T19:28:37.462Z,42.69
2018-04-08T19:31:05.902Z,42.46
2018-04-08T19:33:34.329Z,42.56
2018-04-08T19:36:02.769Z,42.93
2018-04-08T19:38:31.174Z,43.24
2018-04-08T19:40:59.623Z,43.46
2018-04-08T19:43:28.028Z,44.33
2018-04-08T19:45:56.425Z,43.92
2018-04-08T19:48:24.892Z,44.28
2018-04-08T19:50:53.305Z,44.25
2018-04-08T19:53:21.762Z,44.91
2018-04-08T19:55:50.121Z,45.20
2018-04-08T19:58:18.554Z,45.40
2018-04-08T20:00:47.298Z,45.61
2018-04-08T20:03:15.759Z,45.77
2018-04-08T20:05:44.166Z,45.64
2018-04-08T20:08:12.591Z,45.50
2018-04-08T20:10:41.021Z,45.33
2018-04-08T20:13:09.456Z,45.52
2018-04-08T20:15:37.908Z,45.67
2018-04-08T20:18:06.332Z,45.88
2018-04-08T20:20:34.748Z,45.75
2018-04-08T20:23:03.168Z,45.88
2018-04-08T20:25:31.605Z,45.88
2018-04-08T20:28:00.064Z,45.73
2018-04-08T20:30:28.458Z,46.37
2018-04-08T20:32:56.975Z,45.92
2018-04-08T20:35:25.381Z,45.77
2018-04-08T20:37:53.830Z,46.31
2018-04-08T20:40:22.319Z,45.77
2018-04-08T20:42:50.759Z,45.49
2018-04-08T20:45:19.139Z,45.35
2018-04-08T20:47:47.601Z,44.06
2018-04-08T20:50:15.986Z,43.68
2018-04-08T20:52:44.390Z,43.77
2018-04-08T20:55:12.844Z,43.43
2018-04-08T20:57:41.240Z,42.46
2018-04-08T21:00:09.754Z,41.56
2018-04-08T21:02:38.153Z,40.39
2018-04-08T21:05:06.590Z,39.92
2018-04-08T21:07:34.961Z,39.59
2018-04-08T21:10:03.368Z,38.82
2018-04-08T21:12:31.840Z,38.56
2018-04-08T21:15:00.221Z,38.75
2018-04-08T21:17:28.699Z,38.20
2018-04-08T21:19:57.105Z,38.38
2018-04-08T21:22:25.488Z,38.25
2018-04-08T21:24:53.924Z,38.13
2018-04-08T21:27:22.341Z,38.43
2018-04-08T21:29:50.780Z,38.61
2018-04-08T21:32:19.281Z,38.46
2018-04-08T21:34:47.768Z,38.80
2018-04-08T21:37:16.370Z,38.96
2018-04-08T21:39:44.794Z,39.02
2018-04-08T21:42:13.177Z,38.94
2018-04-08T21:44:41.676Z,38.76
2018-04-08T21:47:10.128Z,38.80
2018-04-08T21:49:38.585Z,38.87
2018-04-08T21:52:07.002Z,39.44
2018-04-08T21:54:35.383Z,40.04
2018-04-08T21:57:03.840Z,40.25
2018-04-08T21:59:32.221Z,40.31
2018-04-08T22:02:00.634Z,40.15
2018-04-08T22:04:29.036Z,40.54
2018-04-08T22:06:57.457Z,40.82
2018-04-08T22:09:25.895Z,40.89
2018-04-08T22:11:54.308Z,40.67
2018-04-08T22:14:22.706Z,40.54
2018-04-08T22:16:51.162Z,40.42
2018-04-08T22:19:19.626Z,40.37
2018-04-08T22:21:48.065Z,41.11
2018-04-08T22:24:16.503Z,41.72
2018-04-08T22:26:44.906Z,41.95
2018-04-08T22:29:13.357Z,42.88
2018-04-08T22:31:41.737Z,42.41
2018-04-08T22:34:10.176Z,42.45
2018-04-08T22:36:38.571Z,41.88
2018-04-08T22:39:07.013Z,41.90
2018-04-08T22:41:35.478Z,41.92
2018-04-08T22:44:03.970Z,41.22
2018-04-08T22:46:32.404Z,41.48
2018-04-08T22:49:00.833Z,41.16
2018-04-08T22:51:29.242Z,41.05
2018-04-08T22:53:57.699Z,41.30
2018-04-08T22:56:26.082Z,40.98
2018-04-08T22:58:54.508Z,40.70
2018-04-08T23:01:22.957Z,41.25
2018-04-08T23:03:51.383Z,41.10
2018-04-08T23:06:19.804Z,40.74
2018-04-08T23:08:48.235Z,40.84
2018-04-08T23:11:16.662Z,40.84
2018-04-08T23:13:45.061Z,41.57
2018-04-08T23:16:13.501Z,41.77
2018-04-08T23:18:41.995Z,42.03
2018-04-08T23:21:10.402Z,44.20
2018-04-08T23:23:38.872Z,44.45
2018-04-08T23:26:07.279Z,45.09
2018-04-08T23:28:35.694Z,46.48
2018-04-08T23:31:04.150Z,46.32
2018-04-08T23:33:32.541Z,48.32
2018-04-08T23:36:00.965Z,48.92
2018-04-08T23:38:29.410Z,47.90
2018-04-08T23:40:57.805Z,48.10
2018-04-08T23:43:26.223Z,48.00
2018-04-08T23:45:54.633Z,45.80
2018-04-08T23:48:23.096Z,48.51
2018-04-08T23:50:51.480Z,49.35
2018-04-08T23:53:19.931Z,50.65
2018-04-08T23:55:48.316Z,50.52
2018-04-08T23:58:16.761Z,50.26
